createdAt,value
2018-09-14T00:00:50.472Z,100.0
2018-09-14T00:02:50.542Z,100.0
2018-09-14T00:04:49.943Z,100.0
2018-09-14T00:06:50.158Z,100.0
2018-09-14T00:08:50.289Z,100.0
2018-09-14T00:10:50.303Z,100.0
2018-09-14T00:12:50.314Z,100.0
2018-09-14T00:14:50.332Z,100.0
2018-09-14T00:16:50.428Z,100.0
2018-09-14T00:18:50.488Z,100.0
2018-09-14T00:20:50.558Z,100.0
2018-09-14T00:22:50.527Z,100.0
2018-09-14T00:24:50.651Z,100.0
2018-09-14T00:26:49.889Z,100.0
2018-09-14T00:28:49.955Z,100.0
2018-09-14T00:30:50.007Z,100.0
2018-09-14T00:32:50.016Z,100.0
2018-09-14T00:34:50.417Z,100.0
2018-09-14T00:36:50.520Z,100.0
2018-09-14T00:38:50.611Z,100.0
2018-09-14T00:40:50.630Z,100.0
2018-09-14T00:42:49.898Z,100.0
2018-09-14T00:44:49.926Z,100.0
2018-09-14T00:46:50.284Z,100.0
2018-09-14T00:48:50.272Z,100.0
2018-09-14T00:50:50.353Z,100.0
2018-09-14T00:52:50.401Z,100.0
2018-09-14T00:54:50.438Z,100.0
2018-09-14T00:56:50.650Z,100.0
2018-09-14T00:58:50.734Z,100.0
2018-09-14T01:00:49.808Z,100.0
2018-09-14T01:02:49.922Z,100.0
2018-09-14T01:04:50.335Z,100.0
2018-09-14T01:06:50.452Z,100.0
2018-09-14T01:08:50.611Z,100.0
2018-09-14T01:10:50.606Z,100.0
2018-09-14T01:12:50.720Z,100.0
2018-09-14T01:14:50.740Z,100.0
2018-09-14T01:16:49.952Z,100.0
2018-09-14T01:18:50.079Z,100.0
2018-09-14T01:20:50.109Z,100.0
2018-09-14T01:22:50.110Z,100.0
2018-09-14T01:24:50.111Z,100.0
2018-09-14T01:26:50.170Z,100.0
2018-09-14T01:28:50.337Z,100.0
2018-09-14T01:30:50.355Z,100.0
2018-09-14T01:32:50.468Z,100.0
2018-09-14T01:34:50.773Z,100.0
2018-09-14T01:36:49.980Z,100.0
2018-09-14T01:38:50.060Z,100.0
2018-09-14T01:40:50.050Z,100.0
2018-09-14T01:42:50.075Z,100.0
2018-09-14T01:44:50.103Z,100.0
2018-09-14T01:46:50.313Z,100.0
2018-09-14T01:48:50.277Z,100.0
2018-09-14T01:50:50.296Z,100.0
2018-09-14T01:52:50.341Z,100.0
2018-09-14T01:54:50.336Z,100.0
2018-09-14T01:56:50.360Z,100.0
2018-09-14T01:58:50.382Z,100.0
2018-09-14T02:00:50.405Z,100.0
2018-09-14T02:02:50.365Z,100.0
2018-09-14T02:04:50.641Z,100.0
2018-09-14T02:06:49.820Z,100.0
2018-09-14T02:08:50.168Z,100.0
2018-09-14T02:10:50.155Z,100.0
2018-09-14T02:12:50.165Z,100.0
2018-09-14T02:14:50.185Z,100.0
2018-09-14T02:16:50.316Z,100.0
2018-09-14T02:18:50.305Z,100.0
2018-09-14T02:20:50.434Z,100.0
2018-09-14T02:22:50.519Z,100.0
2018-09-14T02:24:50.581Z,100.0
2018-09-14T02:26:49.870Z,100.0
2018-09-14T02:28:49.970Z,100.0
2018-09-14T02:30:50.010Z,100.0
2018-09-14T02:32:50.127Z,100.0
2018-09-14T02:34:50.623Z,100.0
2018-09-14T02:36:49.945Z,100.0
2018-09-14T02:38:49.948Z,100.0
2018-09-14T02:40:49.988Z,100.0
2018-09-14T02:42:50.125Z,100.0
2018-09-14T02:44:50.164Z,100.0
2018-09-14T02:46:50.300Z,100.0
2018-09-14T02:48:50.331Z,100.0
2018-09-14T02:50:50.464Z,100.0
2018-09-14T02:52:50.491Z,100.0
2018-09-14T02:54:50.534Z,100.0
2018-09-14T02:56:50.682Z,100.0
2018-09-14T02:58:49.816Z,100.0
2018-09-14T03:00:49.807Z,100.0
2018-09-14T03:02:49.905Z,100.0
2018-09-14T03:04:50.496Z,100.0
2018-09-14T03:06:50.756Z,100.0
2018-09-14T03:08:50.765Z,100.0
2018-09-14T03:10:49.813Z,100.0
2018-09-14T03:12:49.994Z,100.0
2018-09-14T03:14:50.038Z,100.0
2018-09-14T03:16:50.326Z,100.0
2018-09-14T03:18:50.405Z,100.0
2018-09-14T03:20:50.679Z,100.0
2018-09-14T03:22:50.659Z,100.0
2018-09-14T03:24:50.664Z,100.0
2018-09-14T03:26:49.870Z,100.0
2018-09-14T03:28:49.914Z,100.0
2018-09-14T03:30:50.012Z,100.0
2018-09-14T03:32:50.038Z,100.0
2018-09-14T03:34:50.419Z,100.0
2018-09-14T03:36:50.579Z,100.0
2018-09-14T03:38:50.591Z,100.0
2018-09-14T03:40:50.639Z,100.0
2018-09-14T03:42:50.673Z,100.0
2018-09-14T03:44:50.680Z,100.0
2018-09-14T03:46:49.827Z,100.0
2018-09-14T03:48:50.005Z,100.0
2018-09-14T03:50:50.023Z,100.0
2018-09-14T03:52:50.013Z,100.0
2018-09-14T03:54:50.007Z,100.0
2018-09-14T03:56:50.283Z,100.0
2018-09-14T03:58:50.270Z,100.0
2018-09-14T04:00:50.381Z,100.0
2018-09-14T04:02:50.371Z,100.0
2018-09-14T04:04:49.812Z,100.0
2018-09-14T04:06:50.063Z,100.0
2018-09-14T04:08:50.074Z,100.0
2018-09-14T04:10:50.254Z,100.0
2018-09-14T04:12:50.287Z,100.0
2018-09-14T04:14:50.260Z,100.0
2018-09-14T04:16:50.502Z,100.0
2018-09-14T04:18:50.509Z,100.0
2018-09-14T04:20:50.713Z,100.0
2018-09-14T04:22:50.742Z,100.0
2018-09-14T04:24:50.746Z,100.0
2018-09-14T04:26:50.530Z,100.0
2018-09-14T04:28:50.601Z,100.0
2018-09-14T04:30:50.584Z,100.0
2018-09-14T04:32:50.640Z,100.0
2018-09-14T04:34:50.126Z,100.0
2018-09-14T04:36:50.293Z,100.0
2018-09-14T04:38:50.345Z,100.0
2018-09-14T04:40:50.363Z,100.0
2018-09-14T04:42:50.504Z,100.0
2018-09-14T04:44:50.550Z,100.0
2018-09-14T04:46:49.819Z,100.0
2018-09-14T04:48:49.835Z,100.0
2018-09-14T04:50:50.008Z,100.0
2018-09-14T04:52:50.037Z,100.0
2018-09-14T04:54:50.050Z,100.0
2018-09-14T04:56:50.066Z,100.0
2018-09-14T04:58:50.029Z,100.0
2018-09-14T05:00:49.993Z,100.0
2018-09-14T05:02:50.014Z,100.0
2018-09-14T05:04:50.358Z,100.0
2018-09-14T05:06:50.611Z,100.0
2018-09-14T05:08:50.608Z,100.0
2018-09-14T05:10:50.647Z,100.0
2018-09-14T05:12:50.605Z,100.0
2018-09-14T05:14:50.613Z,100.0
2018-09-14T05:16:49.839Z,100.0
2018-09-14T05:18:49.848Z,100.0
2018-09-14T05:20:49.942Z,100.0
2018-09-14T05:22:50.046Z,100.0
2018-09-14T05:24:50.103Z,100.0
2018-09-14T05:26:50.263Z,100.0
2018-09-14T05:28:50.248Z,100.0
2018-09-14T05:30:50.278Z,100.0
2018-09-14T05:32:50.418Z,100.0
2018-09-14T05:34:50.739Z,100.0
2018-09-14T05:36:50.409Z,100.0
2018-09-14T05:38:50.452Z,100.0
2018-09-14T05:40:50.474Z,100.0
2018-09-14T05:42:50.467Z,100.0
2018-09-14T05:44:50.696Z,100.0
2018-09-14T05:46:49.879Z,100.0
2018-09-14T05:48:49.927Z,100.0
2018-09-14T05:50:49.957Z,100.0
2018-09-14T05:52:50.065Z,100.0
2018-09-14T05:54:50.061Z,100.0
2018-09-14T05:56:50.263Z,100.0
2018-09-14T05:58:50.281Z,100.0
2018-09-14T06:00:50.294Z,100.0
2018-09-14T06:02:50.328Z,100.0
2018-09-14T06:04:50.652Z,100.0
2018-09-14T06:06:49.932Z,98.9
2018-09-14T06:08:50.081Z,98.6
2018-09-14T06:10:50.043Z,99.3
2018-09-14T06:12:50.012Z,99.0
2018-09-14T06:14:50.103Z,97.9
2018-09-14T06:16:50.590Z,97.5
2018-09-14T06:18:50.619Z,97.5
2018-09-14T06:20:50.652Z,97.8
2018-09-14T06:22:50.909Z,97.8
2018-09-14T06:24:50.138Z,96.4
2018-09-14T06:26:50.334Z,95.7
2018-09-14T06:28:50.390Z,95.6
2018-09-14T06:30:50.406Z,96.1
2018-09-14T06:32:50.427Z,95.8
2018-09-14T06:34:50.758Z,95.7
2018-09-14T06:36:49.965Z,97.0
2018-09-14T06:38:49.981Z,95.3
2018-09-14T06:40:50.132Z,94.9
2018-09-14T06:42:50.308Z,94.0
2018-09-14T06:44:50.501Z,93.5
2018-09-14T06:46:49.840Z,91.9
2018-09-14T06:48:49.967Z,91.4
2018-09-14T06:50:49.983Z,92.4
2018-09-14T06:52:49.994Z,91.7
2018-09-14T06:54:50.193Z,91.6
2018-09-14T06:56:50.572Z,89.1
2018-09-14T06:58:49.836Z,89.8
2018-09-14T07:00:50.265Z,88.1
2018-09-14T07:02:50.289Z,88.6
2018-09-14T07:04:49.805Z,87.8
2018-09-14T07:06:50.003Z,86.1
2018-09-14T07:08:49.951Z,84.8
2018-09-14T07:10:49.934Z,85.6
2018-09-14T07:12:49.968Z,88.3
2018-09-14T07:14:50.021Z,88.2
2018-09-14T07:16:50.279Z,88.5
2018-09-14T07:18:50.365Z,89.3
2018-09-14T07:20:50.365Z,87.7
2018-09-14T07:22:50.411Z,88.6
2018-09-14T07:24:52.149Z,89.1
2018-09-14T07:26:50.539Z,87.2
2018-09-14T07:28:51.244Z,87.4
2018-09-14T07:30:50.239Z,86.0
2018-09-14T07:32:50.422Z,87.2
2018-09-14T07:34:49.805Z,87.8
2018-09-14T07:36:50.014Z,87.8
2018-09-14T07:38:50.040Z,87.2
2018-09-14T07:40:50.043Z,86.7
2018-09-14T07:42:50.256Z,86.7
2018-09-14T07:44:50.336Z,85.4
2018-09-14T07:46:50.572Z,84.8
2018-09-14T07:48:50.673Z,86.0
2018-09-14T07:50:50.658Z,86.3
2018-09-14T07:52:50.754Z,85.5
2018-09-14T07:54:49.841Z,85.8
2018-09-14T07:56:49.963Z,85.8
2018-09-14T07:58:50.100Z,83.0
2018-09-14T08:00:50.072Z,84.6
2018-09-14T08:02:50.038Z,82.9
2018-09-14T08:04:50.275Z,83.0
2018-09-14T08:06:50.475Z,82.3
2018-09-14T08:08:50.639Z,84.7
2018-09-14T08:10:50.734Z,82.5
2018-09-14T08:12:50.729Z,83.1
2018-09-14T08:14:49.876Z,81.6
2018-09-14T08:16:49.985Z,80.4
2018-09-14T08:18:49.979Z,79.9
2018-09-14T08:20:49.984Z,81.7
2018-09-14T08:22:50.027Z,81.5
2018-09-14T08:24:50.011Z,79.9
2018-09-14T08:26:51.033Z,80.3
2018-09-14T08:28:50.144Z,79.7
2018-09-14T08:30:50.171Z,79.2
2018-09-14T08:32:50.236Z,77.7
2018-09-14T08:34:50.559Z,80.0
2018-09-14T08:36:49.850Z,79.0
2018-09-14T08:38:50.209Z,79.0
2018-09-14T08:40:50.323Z,77.7
2018-09-14T08:42:50.336Z,77.7
2018-09-14T08:44:50.295Z,77.9
2018-09-14T08:46:50.483Z,77.2
2018-09-14T08:48:50.543Z,77.0
2018-09-14T08:50:50.537Z,76.6
2018-09-14T08:52:50.614Z,75.5
2018-09-14T08:54:50.743Z,75.4
2018-09-14T08:56:50.267Z,75.3
2018-09-14T08:58:50.289Z,74.0
2018-09-14T09:00:50.884Z,74.4
2018-09-14T09:02:49.960Z,74.0
2018-09-14T09:04:50.400Z,72.4
2018-09-14T09:06:50.566Z,72.5
2018-09-14T09:08:50.613Z,70
2018-09-14T09:10:50.615Z,72.6
2018-09-14T09:12:49.839Z,70
2018-09-14T09:14:49.891Z,70
2018-09-14T09:16:50.310Z,71
2018-09-14T09:18:50.289Z,71
2018-09-14T09:20:50.272Z,71
2018-09-14T09:22:50.285Z,70
2018-09-14T09:24:50.295Z,68
2018-09-14T09:26:50.556Z,69
2018-09-14T09:28:50.502Z,69
2018-09-14T09:30:50.562Z,69
2018-09-14T09:32:50.569Z,68
2018-09-14T09:34:49.955Z,68
2018-09-14T09:36:50.219Z,67
2018-09-14T09:38:50.205Z,67
2018-09-14T09:40:50.164Z,67
2018-09-14T09:42:50.188Z,66
2018-09-14T09:44:50.215Z,63
2018-09-14T09:46:50.374Z,63
2018-09-14T09:48:50.490Z,63
2018-09-14T09:50:50.816Z,65
2018-09-14T09:52:49.986Z,65
2018-09-14T09:54:50.042Z,65
2018-09-14T09:56:50.820Z,64
2018-09-14T09:58:50.739Z,64
2018-09-14T10:00:49.913Z,65
2018-09-14T10:02:49.938Z,65
2018-09-14T10:04:50.462Z,64
2018-09-14T10:06:50.226Z,64
2018-09-14T10:08:50.306Z,64
2018-09-14T10:10:50.290Z,64
2018-09-14T10:12:50.312Z,65
2018-09-14T10:14:50.352Z,65
2018-09-14T10:16:50.572Z,65
2018-09-14T10:18:50.629Z,65
2018-09-14T10:20:51.207Z,65
2018-09-14T10:22:50.285Z,64
2018-09-14T10:24:50.282Z,64
2018-09-14T10:26:50.845Z,64
2018-09-14T10:28:50.192Z,64
2018-09-14T10:30:50.312Z,69.0
2018-09-14T10:32:50.392Z,66.6
2018-09-14T10:34:49.857Z,66.8
2018-09-14T10:36:50.186Z,65.9
2018-09-14T10:38:50.167Z,65.9
2018-09-14T10:40:50.788Z,64.4
2018-09-14T10:42:50.279Z,65.0
2018-09-14T10:44:50.277Z,64.7
2018-09-14T10:46:50.465Z,65.1
2018-09-14T10:48:51.008Z,65.5
2018-09-14T10:50:50.075Z,64.3
2018-09-14T10:52:50.065Z,63.3
2018-09-14T10:54:50.280Z,64.8
2018-09-14T10:56:50.520Z,61.6
2018-09-14T10:58:50.532Z,63.7
2018-09-14T11:00:50.880Z,62.2
2018-09-14T11:02:49.926Z,62.2
2018-09-14T11:04:50.301Z,62.2
2018-09-14T11:06:50.652Z,61.4
2018-09-14T11:08:50.605Z,61.0
2018-09-14T11:10:50.668Z,61.0
2018-09-14T11:12:50.788Z,58.4
2018-09-14T11:14:49.989Z,63
2018-09-14T11:16:50.182Z,63
2018-09-14T11:18:50.297Z,63
2018-09-14T11:20:50.305Z,62
2018-09-14T11:22:50.239Z,62
2018-09-14T11:24:51.588Z,62
2018-09-14T11:26:49.768Z,62
2018-09-14T11:28:50.741Z,62
2018-09-14T11:30:50.757Z,61
2018-09-14T11:32:50.659Z,61
2018-09-14T11:34:50.055Z,61
2018-09-14T11:36:50.156Z,62
2018-09-14T11:38:50.343Z,61
2018-09-14T11:40:50.338Z,61
2018-09-14T11:42:50.263Z,61
2018-09-14T11:44:50.255Z,61
2018-09-14T11:46:50.402Z,60
2018-09-14T11:48:50.445Z,60
2018-09-14T11:50:50.490Z,60
2018-09-14T11:52:50.453Z,59
2018-09-14T11:54:50.490Z,59
2018-09-14T11:56:50.779Z,59
2018-09-14T11:58:49.887Z,59
2018-09-14T12:00:49.998Z,59
2018-09-14T12:02:49.985Z,60
2018-09-14T12:04:50.157Z,60
2018-09-14T12:06:50.276Z,59
2018-09-14T12:08:50.296Z,60
2018-09-14T12:10:50.301Z,60
2018-09-14T12:12:50.536Z,60
2018-09-14T12:14:50.483Z,60
2018-09-14T12:16:50.771Z,60
2018-09-14T12:18:49.772Z,60
2018-09-14T12:20:49.781Z,60
2018-09-14T12:22:50.753Z,59
2018-09-14T12:24:49.957Z,58
2018-09-14T12:26:50.087Z,58
2018-09-14T12:28:50.048Z,59
2018-09-14T12:30:50.076Z,59
2018-09-14T12:32:50.114Z,58
2018-09-14T12:34:50.448Z,57
2018-09-14T12:36:50.621Z,58
2018-09-14T12:38:50.684Z,58
2018-09-14T12:40:50.716Z,58
2018-09-14T12:42:49.810Z,56
2018-09-14T12:44:49.810Z,56
2018-09-14T12:46:50.123Z,57
2018-09-14T12:48:50.746Z,56
2018-09-14T12:50:50.117Z,56
2018-09-14T12:52:50.560Z,56
2018-09-14T12:54:50.583Z,56
2018-09-14T12:56:50.804Z,54
2018-09-14T12:58:50.740Z,54
2018-09-14T13:00:49.867Z,55
2018-09-14T13:02:50.024Z,55
2018-09-14T13:04:50.722Z,54
2018-09-14T13:06:50.293Z,54
2018-09-14T13:08:50.361Z,55
2018-09-14T13:10:50.428Z,55
2018-09-14T13:12:50.394Z,56
2018-09-14T13:14:50.729Z,55
2018-09-14T13:16:50.036Z,54
2018-09-14T13:18:50.092Z,54
2018-09-14T13:20:50.111Z,54
2018-09-14T13:22:50.070Z,54
2018-09-14T13:24:50.147Z,54
2018-09-14T13:26:50.415Z,54
2018-09-14T13:28:50.409Z,54
2018-09-14T13:30:50.511Z,54
2018-09-14T13:32:50.518Z,54
2018-09-14T13:34:50.049Z,54
2018-09-14T13:36:50.362Z,54
2018-09-14T13:38:50.318Z,54
2018-09-14T13:40:50.466Z,54
2018-09-14T13:42:50.414Z,54
2018-09-14T13:44:50.866Z,54
2018-09-14T13:46:50.115Z,54
2018-09-14T13:48:50.378Z,54
2018-09-14T13:50:50.357Z,54
2018-09-14T13:52:50.785Z,53
2018-09-14T13:54:49.801Z,53
2018-09-14T13:56:50.066Z,53
2018-09-14T13:58:50.078Z,52
2018-09-14T14:00:50.090Z,53
2018-09-14T14:02:50.147Z,53
2018-09-14T14:04:50.448Z,52
2018-09-14T14:06:50.688Z,51
2018-09-14T14:08:49.790Z,52
2018-09-14T14:10:49.981Z,53
2018-09-14T14:12:50.201Z,53
2018-09-14T14:14:50.265Z,53
2018-09-14T14:16:50.685Z,53
2018-09-14T14:18:50.678Z,53
2018-09-14T14:20:49.804Z,53
2018-09-14T14:22:49.824Z,53
2018-09-14T14:24:49.791Z,53
2018-09-14T14:26:49.961Z,53
2018-09-14T14:28:50.176Z,53
2018-09-14T14:30:50.190Z,53
2018-09-14T14:32:50.478Z,52
2018-09-14T14:34:50.185Z,52
2018-09-14T14:36:50.258Z,51
2018-09-14T14:38:50.385Z,51
2018-09-14T14:40:50.493Z,51
2018-09-14T14:42:50.551Z,51
2018-09-14T14:44:50.653Z,51
2018-09-14T14:46:51.050Z,52
2018-09-14T14:48:50.540Z,52
2018-09-14T14:50:50.486Z,52
2018-09-14T14:52:50.728Z,52
2018-09-14T14:54:50.763Z,53
2018-09-14T14:56:50.021Z,52
2018-09-14T14:58:50.018Z,53
2018-09-14T15:00:50.106Z,53
2018-09-14T15:02:50.536Z,52
2018-09-14T15:04:50.281Z,52
2018-09-14T15:06:50.204Z,53
2018-09-14T15:08:50.201Z,53
2018-09-14T15:10:50.925Z,53
2018-09-14T15:12:50.063Z,53
2018-09-14T15:14:50.119Z,53
2018-09-14T15:16:50.350Z,53
2018-09-14T15:18:50.397Z,53
2018-09-14T15:20:50.798Z,52
2018-09-14T15:22:49.813Z,53
2018-09-14T15:24:50.771Z,53
2018-09-14T15:26:50.068Z,53
2018-09-14T15:28:50.005Z,53
2018-09-14T15:30:50.026Z,53
2018-09-14T15:32:50.090Z,53
2018-09-14T15:34:50.292Z,53
2018-09-14T15:36:50.352Z,53
2018-09-14T15:38:50.369Z,49.7
2018-09-14T15:40:50.348Z,50.8
2018-09-14T15:42:50.322Z,51.1
2018-09-14T15:44:50.341Z,52.6
2018-09-14T15:46:50.527Z,51.2
2018-09-14T15:48:50.643Z,51.3
2018-09-14T15:50:50.708Z,51.3
2018-09-14T15:52:50.687Z,51.6
2018-09-14T15:54:50.667Z,52.0
2018-09-14T15:56:49.879Z,52.8
2018-09-14T15:58:49.942Z,53.3
2018-09-14T16:00:50.044Z,53.1
2018-09-14T16:02:50.127Z,53.3
2018-09-14T16:04:50.420Z,53.7
2018-09-14T16:06:50.493Z,53.7
2018-09-14T16:08:50.561Z,53.7
2018-09-14T16:10:50.582Z,53.7
2018-09-14T16:12:50.574Z,54.5
2018-09-14T16:14:49.830Z,54.3
2018-09-14T16:16:50.112Z,55.1
2018-09-14T16:18:50.420Z,55.6
2018-09-14T16:20:50.466Z,55.9
2018-09-14T16:22:50.508Z,56.2
2018-09-14T16:24:50.496Z,56.4
2018-09-14T16:26:50.682Z,56.7
2018-09-14T16:28:50.677Z,56.2
2018-09-14T16:30:50.728Z,56.3
2018-09-14T16:32:50.715Z,56.6
2018-09-14T16:34:50.463Z,56.5
2018-09-14T16:36:50.609Z,56.7
2018-09-14T16:38:50.615Z,56.7
2018-09-14T16:40:50.640Z,57.9
2018-09-14T16:42:49.819Z,57.9
2018-09-14T16:44:49.813Z,57.5
2018-09-14T16:46:49.972Z,57.5
2018-09-14T16:48:50.038Z,57.5
2018-09-14T16:50:50.026Z,57.9
2018-09-14T16:52:50.018Z,57.9
2018-09-14T16:54:50.428Z,58.7
2018-09-14T16:56:50.522Z,58.5
2018-09-14T16:58:50.538Z,58.7
2018-09-14T17:00:50.480Z,58.9
2018-09-14T17:02:50.623Z,58.7
2018-09-14T17:04:50.330Z,58.7
2018-09-14T17:06:50.541Z,59.6
2018-09-14T17:08:50.564Z,59.4
2018-09-14T17:10:50.511Z,59.1
2018-09-14T17:12:50.601Z,59.9
2018-09-14T17:14:50.594Z,60.2
2018-09-14T17:16:49.843Z,60.0
2018-09-14T17:18:49.950Z,61.2
2018-09-14T17:20:49.909Z,60.6
2018-09-14T17:22:49.989Z,60.5
2018-09-14T17:24:49.932Z,60.7
2018-09-14T17:26:50.121Z,60.7
2018-09-14T17:28:50.150Z,61.1
2018-09-14T17:30:50.171Z,61.4
2018-09-14T17:32:50.350Z,61.2
2018-09-14T17:34:50.662Z,61.1
2018-09-14T17:36:49.864Z,61.2
2018-09-14T17:38:49.830Z,61.3
2018-09-14T17:40:49.793Z,61.8
2018-09-14T17:42:50.041Z,62.0
2018-09-14T17:44:50.054Z,62.1
2018-09-14T17:46:50.318Z,62.6
2018-09-14T17:48:50.369Z,62.2
2018-09-14T17:50:50.416Z,62.3
2018-09-14T17:52:50.385Z,62.5
2018-09-14T17:54:50.317Z,62.8
2018-09-14T17:56:50.500Z,62.8
2018-09-14T17:58:50.435Z,62.6
2018-09-14T18:00:50.461Z,63.0
2018-09-14T18:02:50.457Z,63.0
2018-09-14T18:04:49.804Z,63.0
2018-09-14T18:06:50.072Z,63.2
2018-09-14T18:08:50.084Z,63.5
2018-09-14T18:10:50.145Z,63.5
2018-09-14T18:12:50.084Z,63.5
2018-09-14T18:14:50.163Z,64.0
2018-09-14T18:16:50.451Z,64.0
2018-09-14T18:18:50.407Z,64.2
2018-09-14T18:20:50.383Z,64.4
2018-09-14T18:22:50.336Z,64.6
2018-09-14T18:24:50.383Z,64.4
2018-09-14T18:26:50.508Z,64.7
2018-09-14T18:28:50.494Z,64.9
2018-09-14T18:30:50.479Z,65.0
2018-09-14T18:32:50.469Z,65.1
2018-09-14T18:34:49.823Z,65.1
2018-09-14T18:36:50.080Z,65.2
2018-09-14T18:38:50.099Z,65.3
2018-09-14T18:40:50.146Z,65.4
2018-09-14T18:42:50.131Z,65.4
2018-09-14T18:44:50.207Z,65.6
2018-09-14T18:46:50.809Z,65.8
2018-09-14T18:48:49.872Z,65.9
2018-09-14T18:50:49.965Z,66.1
2018-09-14T18:52:49.964Z,66.2
2018-09-14T18:54:50.045Z,66.5
2018-09-14T18:56:50.221Z,66.5
2018-09-14T18:58:50.270Z,67.1
2018-09-14T19:00:50.330Z,66.8
2018-09-14T19:02:50.426Z,66.9
2018-09-14T19:04:49.899Z,67.1
2018-09-14T19:06:50.267Z,67.1
2018-09-14T19:08:50.270Z,67.2
2018-09-14T19:10:50.282Z,67.6
2018-09-14T19:12:50.297Z,67.7
2018-09-14T19:14:50.331Z,67.9
2018-09-14T19:16:50.549Z,68.0
2018-09-14T19:18:49.867Z,68.6
2018-09-14T19:20:49.807Z,68.6
2018-09-14T19:22:49.823Z,68.7
2018-09-14T19:24:50.089Z,68.8
2018-09-14T19:26:50.372Z,68.9
2018-09-14T19:28:50.483Z,69.0
2018-09-14T19:30:50.477Z,69.1
2018-09-14T19:32:50.446Z,69.2
2018-09-14T19:34:50.729Z,69.4
2018-09-14T19:36:49.862Z,69.6
2018-09-14T19:38:50.050Z,69.9
2018-09-14T19:40:50.073Z,70.0
2018-09-14T19:42:50.106Z,70.0
2018-09-14T19:44:50.088Z,70.0
2018-09-14T19:46:50.252Z,70.3
2018-09-14T19:48:50.316Z,70.5
2018-09-14T19:50:50.328Z,70.5
2018-09-14T19:52:50.273Z,70.8
2018-09-14T19:54:50.247Z,71.1
2018-09-14T19:56:50.488Z,71.1
2018-09-14T19:58:50.420Z,71.4
2018-09-14T20:00:50.508Z,71.5
2018-09-14T20:02:50.465Z,71.6
2018-09-14T20:04:49.856Z,71.7
2018-09-14T20:06:50.254Z,72.2
2018-09-14T20:08:50.271Z,72.5
2018-09-14T20:10:50.253Z,72.5
2018-09-14T20:12:50.240Z,72.7
2018-09-14T20:14:50.307Z,72.9
2018-09-14T20:16:50.388Z,73.1
2018-09-14T20:18:50.389Z,73.1
2018-09-14T20:20:50.423Z,73.5
2018-09-14T20:22:50.409Z,73.6
2018-09-14T20:24:50.628Z,73.9
2018-09-14T20:26:50.099Z,74.4
2018-09-14T20:28:50.168Z,74.8
2018-09-14T20:30:50.167Z,75.2
2018-09-14T20:32:50.130Z,75.0
2018-09-14T20:34:50.461Z,75.0
2018-09-14T20:36:50.567Z,75.0
2018-09-14T20:38:50.603Z,75.4
2018-09-14T20:40:50.556Z,76.5
2018-09-14T20:42:50.649Z,75.7
2018-09-14T20:44:50.644Z,75.7
2018-09-14T20:46:49.816Z,75.7
2018-09-14T20:48:49.867Z,75.7
2018-09-14T20:50:49.804Z,75.9
2018-09-14T20:52:49.816Z,75.9
2018-09-14T20:54:49.822Z,76.1
2018-09-14T20:56:49.972Z,76.3
2018-09-14T20:58:50.012Z,76.5
2018-09-14T21:00:49.988Z,76.7
2018-09-14T21:02:50.042Z,77.3
2018-09-14T21:04:50.295Z,77.1
2018-09-14T21:06:50.370Z,77.3
2018-09-14T21:08:50.339Z,78.1
2018-09-14T21:10:50.415Z,78.0
2018-09-14T21:12:50.349Z,78.2
2018-09-14T21:14:50.426Z,79.6
2018-09-14T21:16:50.650Z,79.8
2018-09-14T21:18:50.592Z,80.7
2018-09-14T21:20:49.796Z,81.2
2018-09-14T21:22:49.815Z,82.0
2018-09-14T21:24:49.885Z,82.4
2018-09-14T21:26:50.194Z,82.6
2018-09-14T21:28:50.155Z,83.5
2018-09-14T21:30:50.306Z,84.1
2018-09-14T21:32:50.373Z,84.4
2018-09-14T21:34:50.685Z,84.5
2018-09-14T21:36:49.938Z,85.7
2018-09-14T21:38:50.103Z,86.4
2018-09-14T21:40:50.052Z,87.0
2018-09-14T21:42:50.086Z,87.0
2018-09-14T21:44:50.083Z,87.0
2018-09-14T21:46:50.263Z,87.8
2018-09-14T21:48:50.324Z,88.5
2018-09-14T21:50:50.539Z,88.3
2018-09-14T21:52:50.515Z,88.8
2018-09-14T21:54:50.514Z,89.3
2018-09-14T21:56:50.734Z,90.0
2018-09-14T21:58:50.692Z,89.8
2018-09-14T22:00:49.825Z,90.5
2018-09-14T22:02:49.981Z,90.8
2018-09-14T22:04:50.445Z,91.0
2018-09-14T22:06:50.633Z,91.2
2018-09-14T22:08:50.684Z,91.9
2018-09-14T22:10:50.717Z,91.9
2018-09-14T22:12:50.726Z,92.2
2018-09-14T22:14:50.726Z,92.5
2018-09-14T22:16:50.033Z,92.5
2018-09-14T22:18:50.079Z,93.2
2018-09-14T22:20:50.127Z,93.3
2018-09-14T22:22:50.205Z,94.0
2018-09-14T22:24:50.235Z,94.0
2018-09-14T22:26:50.342Z,94.3
2018-09-14T22:28:50.364Z,94.5
2018-09-14T22:30:50.309Z,94.6
2018-09-14T22:32:50.269Z,94.8
2018-09-14T22:34:50.520Z,95.0
2018-09-14T22:36:50.746Z,95.4
2018-09-14T22:38:49.772Z,95.3
2018-09-14T22:40:49.806Z,95.8
2018-09-14T22:42:49.803Z,95.9
2018-09-14T22:44:49.834Z,96.1
2018-09-14T22:46:49.941Z,96.4
2018-09-14T22:48:49.976Z,96.6
2018-09-14T22:50:50.129Z,97.1
2018-09-14T22:52:50.385Z,97.1
2018-09-14T22:54:50.423Z,96.9
2018-09-14T22:56:50.492Z,97.2
2018-09-14T22:58:50.545Z,97.5
2018-09-14T23:00:50.544Z,97.4
2018-09-14T23:02:50.427Z,97.6
2018-09-14T23:04:49.981Z,97.9
2018-09-14T23:06:50.276Z,98.3
2018-09-14T23:08:50.278Z,98.4
2018-09-14T23:10:50.288Z,98.9
2018-09-14T23:12:50.343Z,98.7
2018-09-14T23:14:50.326Z,98.7
2018-09-14T23:16:50.564Z,98.9
2018-09-14T23:18:50.580Z,99.5
2018-09-14T23:20:50.528Z,99.4
2018-09-14T23:22:50.615Z,99.6
2018-09-14T23:24:50.754Z,99.7
2018-09-14T23:26:49.966Z,99.9
2018-09-14T23:28:49.957Z,100.0
2018-09-14T23:30:50.150Z,99.8
2018-09-14T23:32:50.190Z,100.0
2018-09-14T23:34:50.642Z,100.0
2018-09-14T23:36:49.985Z,100.0
2018-09-14T23:38:50.104Z,100.0
2018-09-14T23:40:50.162Z,100.0
2018-09-14T23:42:50.153Z,99.9
2018-09-14T23:44:50.214Z,99.8
2018-09-14T23:46:50.584Z,99.4
2018-09-14T23:48:50.653Z,99.6
2018-09-14T23:50:50.611Z,99.2
2018-09-14T23:52:50.663Z,98.6
2018-09-14T23:54:49.816Z,98.6
2018-09-14T23:56:50.103Z,98.6
2018-09-14T23:58:50.139Z,98.6
